Terminal Aerodrome Forecast
Issued by NWS Blacksburg, VA

Home | Current Version | Previous Version | Text Only | Print | Product List | Glossary On
Versions: 1 2 3 4 5 6 7 8 9 10 11 12 13 14 15 16 17 18
000
FTUS41 KRNK 211127
TAFROA
TAF
KROA 211127Z 2112/2212 VRB03KT P6SM BKN250
     FM212100 19008KT P6SM BKN025
     FM220200 21004KT P6SM SCT020
      TEMPO 2202/2204 BKN020=

USA.gov is the U.S. government's official web portal to all federal, state and local government web resources and services.